Time;durP1;ratioP1;P1;durP2;ratioP2;P2;SDS_P1;SDS_P2;PMS_P1;PMS_P2;Temp;Humidity;BMP_temperature;BMP_pressure;BME280_temperature;BME280_humidity;BME280_pressure;Samples;Min_cycle;Max_cycle;Signal;HPM_P1;HPM_P2
2023/04/19 00:01:34;;;;;;;1999.90;999.90;;;8.20;94.20;;;;;;5044563;28;20505;-76
2023/04/19 00:04:00;;;;;;;1999.90;999.90;;;8.20;93.90;;;;;;5052891;28;20040;-76
2023/04/19 00:06:29;;;;;;;1999.90;999.90;;;8.20;94.10;;;;;;5048713;28;20043;-76
2023/04/19 00:08:56;;;;;;;1999.90;999.90;;;8.20;94.10;;;;;;5073441;28;20035;-75
2023/04/19 00:11:22;;;;;;;1999.90;999.90;;;8.10;94.10;;;;;;5051488;28;20082;-74
2023/04/19 00:13:48;;;;;;;1999.90;999.90;;;8.20;94.10;;;;;;5074703;28;20028;-76
2023/04/19 00:16:14;;;;;;;1999.90;999.90;;;8.20;94.20;;;;;;5070585;28;20024;-76
2023/04/19 00:18:39;;;;;;;1999.90;999.90;;;8.20;94.10;;;;;;5069469;28;20037;-76
2023/04/19 00:21:05;;;;;;;1999.90;999.90;;;8.20;94.20;;;;;;5052002;28;20085;-75
2023/04/19 00:23:31;;;;;;;1999.90;999.90;;;8.20;94.10;;;;;;5054480;28;20166;-74
2023/04/19 00:25:56;;;;;;;1999.90;999.90;;;8.20;94.10;;;;;;5074552;28;20034;-75
2023/04/19 00:28:23;;;;;;;1999.90;999.90;;;8.20;94.10;;;;;;5072150;28;20701;-76
2023/04/19 00:30:49;;;;;;;1999.90;999.90;;;8.20;94.00;;;;;;5072959;28;20032;-76
2023/04/19 00:33:15;;;;;;;1999.90;999.90;;;8.20;94.10;;;;;;5052465;28;20031;-75
2023/04/19 00:35:41;;;;;;;1999.90;999.90;;;8.20;94.10;;;;;;5039429;28;20025;-75
2023/04/19 00:38:06;;;;;;;1999.90;999.90;;;8.20;94.20;;;;;;5055376;28;20032;-75
2023/04/19 00:40:32;;;;;;;1999.90;999.90;;;8.10;94.20;;;;;;5069512;28;20028;-75
2023/04/19 00:42:58;;;;;;;1999.90;999.90;;;8.10;94.30;;;;;;5059051;28;20035;-76
2023/04/19 00:45:24;;;;;;;1999.90;999.90;;;8.00;94.30;;;;;;5051177;28;20448;-75
2023/04/19 00:47:51;;;;;;;1999.90;999.90;;;7.80;94.30;;;;;;5072661;28;20028;-75
2023/04/19 00:50:17;;;;;;;1999.90;999.90;;;7.80;94.00;;;;;;5068807;28;20033;-76
2023/04/19 00:52:43;;;;;;;1999.90;999.90;;;7.70;94.30;;;;;;5065779;28;20021;-75
2023/04/19 00:55:09;;;;;;;1999.90;999.90;;;7.70;94.70;;;;;;5049647;28;20094;-74
2023/04/19 00:57:36;;;;;;;1999.90;999.90;;;7.80;94.50;;;;;;5060968;28;20123;-75
2023/04/19 01:00:05;;;;;;;1999.90;999.90;;;7.80;94.40;;;;;;5042368;28;20037;-76
2023/04/19 01:02:31;;;;;;;1999.90;999.90;;;7.90;94.50;;;;;;5050216;28;20035;-75
2023/04/19 01:04:57;;;;;;;1999.90;999.90;;;7.90;94.40;;;;;;5059607;28;20025;-75
2023/04/19 01:07:22;;;;;;;1999.90;999.90;;;7.90;94.30;;;;;;5040489;28;20491;-76
2023/04/19 01:09:48;;;;;;;1999.90;999.90;;;8.00;94.40;;;;;;5044405;28;20055;-76
2023/04/19 01:12:14;;;;;;;1999.90;999.90;;;7.90;94.40;;;;;;5062571;28;20025;-75
2023/04/19 01:14:40;;;;;;;1999.90;999.90;;;8.00;94.50;;;;;;5071477;28;20490;-75
2023/04/19 01:17:07;;;;;;;1999.90;999.90;;;7.90;94.30;;;;;;5041481;28;20040;-75
2023/04/19 01:19:33;;;;;;;1999.90;999.90;;;8.00;94.30;;;;;;5069762;28;20124;-75
2023/04/19 01:22:01;;;;;;;1999.90;999.90;;;7.90;94.40;;;;;;5049139;28;20067;-75
2023/04/19 01:24:27;;;;;;;1999.90;999.90;;;7.90;94.40;;;;;;5054207;28;20028;-76
2023/04/19 01:26:53;;;;;;;1999.90;999.90;;;8.00;94.30;;;;;;5057918;28;20485;-76
2023/04/19 01:29:20;;;;;;;1999.90;999.90;;;7.90;94.50;;;;;;5069145;28;20470;-76
2023/04/19 01:31:50;;;;;;;1999.90;999.90;;;7.90;94.60;;;;;;5043007;28;20522;-76
2023/04/19 01:34:16;;;;;;;1999.90;999.90;;;7.90;94.70;;;;;;5071258;28;20518;-76
2023/04/19 01:36:41;;;;;;;1999.90;999.90;;;7.80;94.60;;;;;;5068354;28;20131;-77
2023/04/19 01:39:07;;;;;;;1999.90;999.90;;;7.90;94.70;;;;;;5049043;28;20116;-76
2023/04/19 01:41:33;;;;;;;1999.90;999.90;;;7.90;94.60;;;;;;5066510;28;20127;-76
2023/04/19 01:43:59;;;;;;;1999.90;999.90;;;7.90;94.60;;;;;;5075214;28;20119;-76
2023/04/19 01:46:25;;;;;;;1999.90;999.90;;;7.90;94.70;;;;;;5076750;28;20143;-76
2023/04/19 01:48:51;;;;;;;1999.90;999.90;;;7.90;94.70;;;;;;5053071;28;20055;-76
2023/04/19 01:51:16;;;;;;;1999.90;999.90;;;7.90;94.70;;;;;;5072922;28;20487;-76
2023/04/19 01:53:42;;;;;;;1999.90;999.90;;;7.90;94.60;;;;;;5070109;28;20060;-76
2023/04/19 01:56:08;;;;;;;1999.90;999.90;;;7.90;94.70;;;;;;5066582;28;20040;-76
2023/04/19 01:58:33;;;;;;;1999.90;999.90;;;7.80;94.70;;;;;;5067935;28;20032;-75
2023/04/19 02:00:59;;;;;;;1999.90;999.90;;;7.90;94.70;;;;;;5056986;28;20039;-75
2023/04/19 02:03:25;;;;;;;1999.90;999.90;;;7.90;94.70;;;;;;5070075;28;20033;-75
2023/04/19 02:05:50;;;;;;;1999.90;999.90;;;7.90;94.60;;;;;;5060683;28;20573;-76
2023/04/19 02:08:16;;;;;;;1999.90;999.90;;;7.90;94.70;;;;;;5071334;28;20029;-76
2023/04/19 02:10:42;;;;;;;1999.90;999.90;;;7.80;94.30;;;;;;5070515;28;20032;-75
2023/04/19 02:13:08;;;;;;;1999.90;999.90;;;7.70;94.40;;;;;;5071171;28;20495;-75
2023/04/19 02:15:36;;;;;;;1999.90;999.90;;;7.70;94.60;;;;;;5069893;28;20519;-76
2023/04/19 02:18:05;;;;;;;1999.90;999.90;;;7.70;94.90;;;;;;5070186;28;20151;-75
2023/04/19 02:20:31;;;;;;;1999.90;999.90;;;7.80;94.90;;;;;;5037178;28;20047;-76
2023/04/19 02:22:56;;;;;;;1999.90;999.90;;;7.80;94.80;;;;;;5055600;28;20059;-76
2023/04/19 02:25:22;;;;;;;1999.90;999.90;;;7.70;94.70;;;;;;5053861;28;20075;-76
2023/04/19 02:27:48;;;;;;;1999.90;999.90;;;7.80;94.80;;;;;;5060668;28;20046;-76
2023/04/19 02:30:14;;;;;;;1999.90;999.90;;;7.80;94.80;;;;;;5068031;28;20028;-76
2023/04/19 02:32:40;;;;;;;1999.90;999.90;;;7.80;94.80;;;;;;5055591;28;20036;-75
2023/04/19 02:35:06;;;;;;;1999.90;999.90;;;7.80;95.00;;;;;;5049012;28;20085;-76
2023/04/19 02:37:31;;;;;;;1999.90;999.90;;;7.80;94.60;;;;;;5053587;28;20036;-76
2023/04/19 02:39:57;;;;;;;1999.90;999.90;;;7.70;94.90;;;;;;5075637;28;20636;-76
2023/04/19 02:42:23;;;;;;;1999.90;999.90;;;7.80;94.90;;;;;;5072228;28;21381;-75
2023/04/19 02:44:48;;;;;;;1999.90;999.90;;;7.70;94.90;;;;;;5085071;28;20391;-75
2023/04/19 02:47:14;;;;;;;1999.90;999.90;;;7.90;94.70;;;;;;5040674;28;20483;-76
2023/04/19 02:49:41;;;;;;;1999.90;999.90;;;7.80;94.70;;;;;;5064804;28;20037;-76
2023/04/19 02:52:07;;;;;;;1999.90;999.90;;;7.70;94.80;;;;;;5051637;28;20035;-75
2023/04/19 02:54:33;;;;;;;1999.90;999.90;;;7.70;94.80;;;;;;5064216;28;20475;-74
2023/04/19 02:56:59;;;;;;;1999.90;999.90;;;7.80;94.70;;;;;;5064714;28;20038;-75
2023/04/19 02:59:25;;;;;;;1999.90;999.90;;;7.80;95.00;;;;;;5069532;28;20031;-74
2023/04/19 03:01:51;;;;;;;1999.90;999.90;;;7.80;94.50;;;;;;5072136;28;20036;-73
2023/04/19 03:04:17;;;;;;;1999.90;999.90;;;7.80;94.70;;;;;;5069063;28;20033;-75
2023/04/19 03:06:43;;;;;;;1999.90;999.90;;;7.70;94.90;;;;;;5058951;28;20043;-75
2023/04/19 03:09:09;;;;;;;1999.90;999.90;;;7.70;94.70;;;;;;5081433;28;20064;-75
2023/04/19 03:11:35;;;;;;;1999.90;999.90;;;7.80;94.80;;;;;;5075489;28;20384;-75
2023/04/19 03:14:01;;;;;;;1999.90;999.90;;;7.80;94.90;;;;;;5081260;28;20433;-75
2023/04/19 03:16:29;;;;;;;1999.90;999.90;;;7.80;94.80;;;;;;5073399;28;20067;-75
2023/04/19 03:18:55;;;;;;;1999.90;999.90;;;7.80;94.70;;;;;;5077386;28;20028;-75
2023/04/19 03:21:21;;;;;;;1999.90;999.90;;;7.80;94.70;;;;;;5080159;28;20032;-74
2023/04/19 03:23:46;;;;;;;1999.90;999.90;;;7.70;94.60;;;;;;5075926;28;20457;-75
2023/04/19 03:26:12;;;;;;;1999.90;999.90;;;7.60;94.30;;;;;;5068890;28;20075;-75
2023/04/19 03:28:38;;;;;;;1999.90;999.90;;;7.60;94.70;;;;;;5064334;28;20141;-75
2023/04/19 03:31:03;;;;;;;1999.90;999.90;;;7.60;94.90;;;;;;5058266;28;20056;-75
2023/04/19 03:33:29;;;;;;;1999.90;999.90;;;7.60;95.00;;;;;;5057968;28;20584;-75
2023/04/19 03:35:54;;;;;;;1999.90;999.90;;;7.70;95.00;;;;;;5081763;28;20032;-75
2023/04/19 03:38:20;;;;;;;1999.90;999.90;;;7.60;95.10;;;;;;5056977;28;20037;-75
2023/04/19 03:40:47;;;;;;;1999.90;999.90;;;7.70;95.00;;;;;;5082231;28;20112;-75
2023/04/19 03:43:12;;;;;;;1999.90;999.90;;;7.70;95.00;;;;;;5061820;28;20016;-75
2023/04/19 03:45:38;;;;;;;1999.90;999.90;;;7.70;95.00;;;;;;5072637;28;20031;-76
2023/04/19 03:48:04;;;;;;;1999.90;999.90;;;7.60;95.00;;;;;;5056012;28;20024;-75
2023/04/19 03:50:33;;;;;;;1999.90;999.90;;;7.60;95.10;;;;;;5076166;28;20037;-75
2023/04/19 03:52:58;;;;;;;1999.90;999.90;;;7.60;95.40;;;;;;5069613;28;20028;-74
2023/04/19 03:55:24;;;;;;;1999.90;999.90;;;7.70;94.90;;;;;;5071589;28;20032;-75
2023/04/19 03:57:50;;;;;;;1999.90;999.90;;;7.60;95.10;;;;;;5055004;28;20040;-75
2023/04/19 04:00:16;;;;;;;1999.90;999.90;;;7.60;95.20;;;;;;5079193;28;20740;-75
2023/04/19 04:02:42;;;;;;;1999.90;999.90;;;7.60;95.20;;;;;;5067175;28;20040;-76
2023/04/19 04:05:07;;;;;;;1999.90;999.90;;;7.60;95.00;;;;;;5070631;28;20051;-75
2023/04/19 04:07:33;;;;;;;1999.90;999.90;;;7.70;94.90;;;;;;5050551;28;20035;-75
2023/04/19 04:09:59;;;;;;;1999.90;999.90;;;7.60;95.00;;;;;;5070155;28;20033;-75
2023/04/19 04:12:24;;;;;;;1999.90;999.90;;;7.70;95.00;;;;;;5049175;28;20921;-75
2023/04/19 04:14:50;;;;;;;1999.90;999.90;;;7.70;95.00;;;;;;5072188;28;20427;-76
2023/04/19 04:17:15;;;;;;;1999.90;999.90;;;7.60;95.00;;;;;;5062575;28;20036;-76
2023/04/19 04:19:41;;;;;;;1999.90;999.90;;;7.60;95.10;;;;;;5051857;28;20529;-75
2023/04/19 04:22:07;;;;;;;1999.90;999.90;;;7.70;94.90;;;;;;5049413;28;20143;-75
2023/04/19 04:24:40;;;;;;;1999.90;999.90;;;7.70;94.90;;;;;;5050491;28;20033;-75
2023/04/19 04:27:08;;;;;;;1999.90;999.90;;;7.60;94.50;;;;;;5052034;28;20040;-75
2023/04/19 04:29:35;;;;;;;1999.90;999.90;;;7.40;94.70;;;;;;5071789;28;20521;-75
2023/04/19 04:32:02;;;;;;;1999.90;999.90;;;7.50;94.80;;;;;;5050463;28;20147;-75
2023/04/19 04:34:27;;;;;;;1999.90;999.90;;;7.40;95.20;;;;;;5074768;28;20038;-75
2023/04/19 04:36:53;;;;;;;1999.90;999.90;;;7.50;95.30;;;;;;5051680;28;20449;-75
2023/04/19 04:39:19;;;;;;;1999.90;999.90;;;7.50;95.10;;;;;;5052081;28;20037;-76
2023/04/19 04:41:46;;;;;;;1999.90;999.90;;;7.60;95.20;;;;;;5062201;28;20041;-80
2023/04/19 04:44:12;;;;;;;1999.90;999.90;;;7.60;95.10;;;;;;5063236;28;20039;-76
2023/04/19 04:46:38;;;;;;;1999.90;999.90;;;7.70;95.00;;;;;;5068344;28;20040;-76
2023/04/19 04:49:03;;;;;;;1999.90;999.90;;;7.70;94.80;;;;;;5049160;28;20028;-76
2023/04/19 04:51:31;;;;;;;1999.90;999.90;;;7.70;94.90;;;;;;5047937;28;20036;-75
2023/04/19 04:53:57;;;;;;;1999.90;999.90;;;7.70;94.80;;;;;;5054581;28;20024;-75
2023/04/19 04:56:24;;;;;;;1999.90;999.90;;;7.70;94.70;;;;;;5067484;28;20033;-75
2023/04/19 04:58:50;;;;;;;1999.90;999.90;;;7.70;94.60;;;;;;5066860;28;20499;-76
2023/04/19 05:01:18;;;;;;;1999.90;999.90;;;7.80;94.60;;;;;;5069375;28;20095;-76
2023/04/19 05:03:44;;;;;;;1999.90;999.90;;;7.60;94.70;;;;;;5071464;28;20119;-76
2023/04/19 05:06:09;;;;;;;1999.90;999.90;;;7.70;94.70;;;;;;5070662;28;20043;-77
2023/04/19 05:08:35;;;;;;;1999.90;999.90;;;7.70;94.70;;;;;;5061959;28;20478;-77
2023/04/19 05:11:01;;;;;;;1999.90;999.90;;;7.70;94.70;;;;;;5048888;28;20402;-77
2023/04/19 05:13:27;;;;;;;1999.90;999.90;;;7.70;95.00;;;;;;5053864;28;20245;-77
2023/04/19 05:15:53;;;;;;;1999.90;999.90;;;7.70;94.90;;;;;;5036899;28;20110;-76
2023/04/19 05:18:18;;;;;;;1999.90;999.90;;;7.70;94.80;;;;;;5067881;28;20114;-77
2023/04/19 05:20:45;;;;;;;1999.90;999.90;;;7.70;94.80;;;;;;5072117;28;20040;-77
2023/04/19 05:23:11;;;;;;;1999.90;999.90;;;7.70;94.80;;;;;;5050703;28;20783;-75
2023/04/19 05:25:36;;;;;;;1999.90;999.90;;;7.80;94.70;;;;;;5070880;28;20028;-70
2023/04/19 05:28:03;;;;;;;1999.90;999.90;;;7.70;94.70;;;;;;5048859;28;20439;-76
2023/04/19 05:30:28;;;;;;;1999.90;999.90;;;7.50;94.00;;;;;;5048440;28;20051;-76
2023/04/19 05:32:54;;;;;;;1999.90;999.90;;;7.50;94.40;;;;;;5067908;28;20475;-76
2023/04/19 05:35:20;;;;;;;1999.90;999.90;;;7.40;95.10;;;;;;5072333;28;20409;-76
2023/04/19 05:37:45;;;;;;;1999.90;999.90;;;7.50;95.20;;;;;;5050745;28;20043;-76
2023/04/19 05:40:12;;;;;;;1999.90;999.90;;;7.60;95.00;;;;;;5048637;28;20033;-76
2023/04/19 05:42:38;;;;;;;1999.90;999.90;;;7.50;95.00;;;;;;5070246;28;20032;-75
2023/04/19 05:45:06;;;;;;;1999.90;999.90;;;7.60;94.90;;;;;;5072251;28;20089;-75
2023/04/19 05:47:31;;;;;;;1999.90;999.90;;;7.70;94.90;;;;;;5046646;28;20024;-76
2023/04/19 05:49:57;;;;;;;1999.90;999.90;;;7.80;94.60;;;;;;5067301;28;20050;-76
2023/04/19 05:52:23;;;;;;;1999.90;999.90;;;7.80;94.70;;;;;;5067985;28;20055;-77
2023/04/19 05:54:48;;;;;;;1999.90;999.90;;;7.80;94.60;;;;;;5053877;28;20094;-76
2023/04/19 05:57:14;;;;;;;1999.90;999.90;;;8.00;94.40;;;;;;5065113;28;20120;-77
2023/04/19 05:59:41;;;;;;;1999.90;999.90;;;8.20;94.00;;;;;;5071141;28;20028;-77
2023/04/19 06:02:07;;;;;;;1999.90;999.90;;;8.20;93.90;;;;;;5068194;28;20059;-77
2023/04/19 06:04:32;;;;;;;1999.90;999.90;;;8.20;93.70;;;;;;5068266;28;20071;-77
2023/04/19 06:06:58;;;;;;;1999.90;999.90;;;8.30;93.50;;;;;;5067203;28;20033;-77
2023/04/19 06:09:23;;;;;;;1999.90;999.90;;;8.20;93.50;;;;;;5054906;28;20049;-77
2023/04/19 06:11:49;;;;;;;1999.90;999.90;;;8.10;93.80;;;;;;5050735;28;20029;-77
2023/04/19 06:14:15;;;;;;;1999.90;999.90;;;8.10;93.80;;;;;;5075925;28;20103;-77
2023/04/19 06:16:41;;;;;;;1999.90;999.90;;;7.90;93.30;;;;;;5048574;28;20039;-76
2023/04/19 06:19:06;;;;;;;1999.90;999.90;;;7.80;93.70;;;;;;5070053;28;20115;-77
2023/04/19 06:21:33;;;;;;;1999.90;999.90;;;7.80;94.40;;;;;;5050085;28;20401;-77
2023/04/19 06:23:59;;;;;;;1999.90;999.90;;;7.80;94.40;;;;;;5068141;28;20047;-77
2023/04/19 06:26:24;;;;;;;1999.90;999.90;;;7.90;94.30;;;;;;5048478;28;20032;-76
2023/04/19 06:28:50;;;;;;;1999.90;999.90;;;7.90;94.20;;;;;;5050988;28;20039;-77
2023/04/19 06:31:16;;;;;;;1999.90;999.90;;;7.80;94.20;;;;;;5051950;28;20067;-76
2023/04/19 06:33:42;;;;;;;1999.90;999.90;;;8.00;94.20;;;;;;5054029;28;20036;-77
2023/04/19 06:36:09;;;;;;;1999.90;999.90;;;7.90;94.20;;;;;;5071925;28;20044;-77
2023/04/19 06:38:37;;;;;;;1999.90;999.90;;;7.90;94.30;;;;;;5069587;28;20028;-77
2023/04/19 06:41:03;;;;;;;1999.90;999.90;;;7.90;94.70;;;;;;5052491;28;20478;-77
2023/04/19 06:43:29;;;;;;;1999.90;999.90;;;7.80;94.20;;;;;;5056075;28;20122;-77
2023/04/19 06:46:01;;;;;;;1999.90;999.90;;;7.70;94.50;;;;;;5067828;28;20111;-77
2023/04/19 06:48:27;;;;;;;1999.90;999.90;;;7.80;94.40;;;;;;5047597;28;20127;-78
2023/04/19 06:50:53;;;;;;;1999.90;999.90;;;7.80;94.50;;;;;;5068696;28;20111;-76
2023/04/19 06:53:19;;;;;;;1999.90;999.90;;;7.80;93.90;;;;;;5067428;28;20065;-77
2023/04/19 06:55:45;;;;;;;1999.90;999.90;;;7.60;94.40;;;;;;5068158;28;20444;-77
2023/04/19 06:58:11;;;;;;;1999.90;999.90;;;7.60;94.40;;;;;;5069873;28;20394;-77
2023/04/19 07:00:37;;;;;;;1999.90;999.90;;;7.80;94.60;;;;;;5064524;28;20025;-77
2023/04/19 07:03:02;;;;;;;1999.90;999.90;;;7.80;94.40;;;;;;5038577;28;20028;-77
2023/04/19 07:05:30;;;;;;;1999.90;999.90;;;7.80;94.50;;;;;;5064736;28;20040;-77
2023/04/19 07:07:56;;;;;;;1999.90;999.90;;;7.80;94.30;;;;;;5078564;28;20032;-77
2023/04/19 07:10:22;;;;;;;1999.90;999.90;;;7.90;94.20;;;;;;5065524;28;20021;-78
2023/04/19 07:12:47;;;;;;;1999.90;999.90;;;7.90;94.10;;;;;;5071111;28;20032;-78
2023/04/19 07:15:13;;;;;;;1999.90;999.90;;;8.00;94.20;;;;;;5049485;28;20029;-77
2023/04/19 07:17:39;;;;;;;1999.90;999.90;;;8.00;94.10;;;;;;5046433;28;20064;-77
2023/04/19 07:20:05;;;;;;;1999.90;999.90;;;8.00;93.90;;;;;;5072862;28;20032;-77
2023/04/19 07:22:31;;;;;;;1999.90;999.90;;;8.10;93.90;;;;;;5064954;28;20064;-77
2023/04/19 07:24:57;;;;;;;1999.90;999.90;;;8.20;93.60;;;;;;5070551;28;20033;-77
2023/04/19 07:27:24;;;;;;;1999.90;999.90;;;8.20;93.50;;;;;;5053114;28;20518;-76
2023/04/19 07:29:50;;;;;;;1999.90;999.90;;;8.20;93.50;;;;;;5075012;28;20791;-76
2023/04/19 07:32:15;;;;;;;1999.90;999.90;;;8.20;93.40;;;;;;5057393;28;20040;-76
2023/04/19 07:34:42;;;;;;;1999.90;999.90;;;8.10;93.70;;;;;;5056502;28;20029;-76
2023/04/19 07:37:08;;;;;;;1999.90;999.90;;;8.10;93.70;;;;;;5075193;28;20201;-76
2023/04/19 07:39:33;;;;;;;1999.90;999.90;;;8.10;93.60;;;;;;5077786;28;20119;-77
2023/04/19 07:42:02;;;;;;;1999.90;999.90;;;8.10;93.70;;;;;;5079511;28;20119;-77
2023/04/19 07:44:28;;;;;;;1999.90;999.90;;;8.10;93.60;;;;;;5071140;28;20060;-76
2023/04/19 07:46:53;;;;;;;1999.90;999.90;;;8.20;93.30;;;;;;5053829;28;20487;-76
2023/04/19 07:49:19;;;;;;;1999.90;999.90;;;8.00;93.80;;;;;;5053133;28;20117;-76
2023/04/19 07:51:45;;;;;;;1999.90;999.90;;;8.00;93.70;;;;;;5051398;28;20039;-77
2023/04/19 07:54:11;;;;;;;1999.90;999.90;;;8.00;93.90;;;;;;5071332;28;20025;-77
2023/04/19 07:56:37;;;;;;;1999.90;999.90;;;8.10;93.50;;;;;;5053951;28;20040;-76
2023/04/19 07:59:02;;;;;;;1999.90;999.90;;;7.90;93.80;;;;;;5053087;28;20020;-77
2023/04/19 08:01:29;;;;;;;1999.90;999.90;;;7.90;93.90;;;;;;5071523;28;20036;-77
2023/04/19 08:03:54;;;;;;;1999.90;999.90;;;8.00;93.80;;;;;;5074205;28;20070;-76
2023/04/19 08:06:20;;;;;;;1999.90;999.90;;;8.00;93.30;;;;;;5052754;28;20083;-77
2023/04/19 08:08:46;;;;;;;1999.90;999.90;;;8.00;93.60;;;;;;5079339;28;20094;-77
2023/04/19 08:11:12;;;;;;;1999.90;999.90;;;8.00;93.70;;;;;;5070466;28;20029;-76
2023/04/19 08:13:38;;;;;;;1999.90;999.90;;;8.00;93.10;;;;;;5052795;28;20028;-76
2023/04/19 08:16:04;;;;;;;1999.90;999.90;;;8.00;93.20;;;;;;5058042;28;20117;-77
2023/04/19 08:18:30;;;;;;;1999.90;999.90;;;7.90;93.10;;;;;;5053904;28;20045;-77
2023/04/19 08:20:56;;;;;;;1999.90;999.90;;;8.00;93.30;;;;;;5068097;28;20032;-78
2023/04/19 08:23:21;;;;;;;1999.90;999.90;;;7.90;93.70;;;;;;5059923;28;20066;-77
2023/04/19 08:25:47;;;;;;;1999.90;999.90;;;8.00;93.30;;;;;;5043365;28;20024;-77
2023/04/19 08:28:13;;;;;;;1999.90;999.90;;;8.10;93.20;;;;;;5069987;28;20143;-78
2023/04/19 08:30:39;;;;;;;1999.90;999.90;;;8.20;92.80;;;;;;5080610;28;20035;-77
2023/04/19 08:33:05;;;;;;;1999.90;999.90;;;8.40;92.30;;;;;;5058800;28;20021;-78
2023/04/19 08:35:31;;;;;;;1999.90;999.90;;;8.30;92.70;;;;;;5051178;28;20391;-77
2023/04/19 08:37:56;;;;;;;1999.90;999.90;;;8.50;92.60;;;;;;5051855;28;20075;-77
2023/04/19 08:40:23;;;;;;;1999.90;999.90;;;8.50;92.30;;;;;;5066124;28;20037;-77
2023/04/19 08:42:48;;;;;;;1999.90;999.90;;;8.80;92.00;;;;;;5078398;28;20079;-77
2023/04/19 08:45:17;;;;;;;1999.90;999.90;;;8.90;91.40;;;;;;5047908;28;20117;-76
2023/04/19 08:47:43;;;;;;;1999.90;999.90;;;8.90;91.80;;;;;;5074450;28;20070;-77
2023/04/19 08:50:09;;;;;;;1999.90;999.90;;;8.90;91.20;;;;;;5074722;28;20032;-76
2023/04/19 08:52:36;;;;;;;1999.90;999.90;;;9.00;91.20;;;;;;5070917;28;20076;-76
2023/04/19 08:55:07;;;;;;;1999.90;999.90;;;9.20;91.10;;;;;;5071886;28;20031;-76
2023/04/19 08:57:33;;;;;;;1999.90;999.90;;;9.30;91.00;;;;;;5070052;28;20828;-76
2023/04/19 09:00:01;;;;;;;1999.90;999.90;;;9.40;90.40;;;;;;5053327;28;20047;-76
2023/04/19 09:02:28;;;;;;;1999.90;999.90;;;9.40;90.40;;;;;;5041756;28;20052;-76
2023/04/19 09:04:54;;;;;;;1999.90;999.90;;;9.30;90.90;;;;;;5067576;28;20036;-76
2023/04/19 09:07:27;;;;;;;1999.90;999.90;;;9.40;90.20;;;;;;5073990;28;20032;-76
2023/04/19 09:10:07;;;;;;;1999.90;999.90;;;9.40;90.00;;;;;;5064938;28;20031;-76
2023/04/19 09:12:34;;;;;;;1999.90;999.90;;;9.40;90.30;;;;;;5057257;28;20028;-77
2023/04/19 09:15:02;;;;;;;1999.90;999.90;;;9.30;90.80;;;;;;5068721;28;20036;-76
2023/04/19 09:17:28;;;;;;;1999.90;999.90;;;9.40;90.10;;;;;;5061007;28;20028;-76
2023/04/19 09:19:54;;;;;;;1999.90;999.90;;;9.50;90.10;;;;;;5072051;28;20077;-77
2023/04/19 09:22:20;;;;;;;1999.90;999.90;;;9.60;90.10;;;;;;5071250;28;20040;-76
2023/04/19 09:24:46;;;;;;;1999.90;999.90;;;9.80;90.30;;;;;;5064840;28;20025;-76
2023/04/19 09:27:12;;;;;;;1999.90;999.90;;;9.80;89.40;;;;;;5069642;28;20142;-77
2023/04/19 09:29:37;;;;;;;1999.90;999.90;;;9.80;89.40;;;;;;5069600;28;20040;-78
2023/04/19 09:32:03;;;;;;;1999.90;999.90;;;9.60;90.00;;;;;;5072533;28;20031;-77
2023/04/19 09:34:29;;;;;;;1999.90;999.90;;;9.70;89.60;;;;;;5066765;28;20415;-76
2023/04/19 09:36:56;;;;;;;1999.90;999.90;;;9.40;89.40;;;;;;5068929;28;20029;-76
2023/04/19 09:39:32;;;;;;;1999.90;999.90;;;9.30;90.00;;;;;;5064565;28;20033;-77
2023/04/19 09:41:59;;;;;;;1999.90;999.90;;;9.50;90.20;;;;;;5072703;28;20568;-78
2023/04/19 09:44:24;;;;;;;1999.90;999.90;;;9.60;90.30;;;;;;5049127;28;20028;-76
2023/04/19 09:46:51;;;;;;;1999.90;999.90;;;9.70;89.50;;;;;;5054117;28;20029;-77
2023/04/19 09:49:25;;;;;;;1999.90;999.90;;;9.90;89.80;;;;;;5045062;28;20542;-76
2023/04/19 09:51:55;;;;;;;1999.90;999.90;;;10.00;88.00;;;;;;5077892;28;20032;-76
2023/04/19 09:54:28;;;;;;;1999.90;999.90;;;10.20;88.10;;;;;;5070260;28;20020;-76
2023/04/19 09:56:54;;;;;;;1999.90;999.90;;;10.30;86.80;;;;;;5076067;28;20041;-77
2023/04/19 09:59:20;;;;;;;1999.90;999.90;;;10.20;86.50;;;;;;5048579;28;20035;-76
2023/04/19 10:01:54;;;;;;;1999.90;999.90;;;10.20;85.80;;;;;;5058175;28;20128;-77
2023/04/19 10:04:20;;;;;;;1999.90;999.90;;;10.20;86.50;;;;;;5050495;28;20064;-77
2023/04/19 10:06:53;;;;;;;1999.90;999.90;;;10.10;86.10;;;;;;5051225;28;20544;-78
2023/04/19 10:09:23;;;;;;;1999.90;999.90;;;10.10;87.10;;;;;;5071072;28;20182;-78
2023/04/19 10:11:52;;;;;;;1999.90;999.90;;;10.00;86.60;;;;;;5073650;28;20056;-77
2023/04/19 10:14:32;;;;;;;1999.90;999.90;;;10.10;86.60;;;;;;5053835;28;20062;-78
2023/04/19 10:16:59;;;;;;;1999.90;999.90;;;10.00;87.50;;;;;;5069703;28;20128;-78
2023/04/19 10:19:27;;;;;;;1999.90;999.90;;;9.80;87.30;;;;;;5065982;28;20028;-76
2023/04/19 10:21:53;;;;;;;1999.90;999.90;;;9.70;87.20;;;;;;5077089;28;20028;-78
2023/04/19 10:24:20;;;;;;;1999.90;999.90;;;9.60;89.30;;;;;;5050027;28;20532;-78
2023/04/19 10:27:11;;;;;;;1999.90;999.90;;;9.60;88.10;;;;;;5055017;28;20036;-79
2023/04/19 10:29:50;;;;;;;1999.90;999.90;;;10.00;87.20;;;;;;5067851;28;20044;-79
2023/04/19 10:32:16;;;;;;;1999.90;999.90;;;10.30;86.80;;;;;;5068138;28;20088;-79
2023/04/19 10:34:42;;;;;;;1999.90;999.90;;;10.80;84.40;;;;;;5069584;28;20044;-78
2023/04/19 10:37:13;;;;;;;1999.90;999.90;;;11.30;83.60;;;;;;5066050;28;20028;-78
2023/04/19 10:39:40;;;;;;;1999.90;999.90;;;11.00;81.80;;;;;;5030995;28;20050;-78
2023/04/19 10:42:06;;;;;;;1999.90;999.90;;;10.80;82.40;;;;;;5058686;28;20101;-79
2023/04/19 10:44:31;;;;;;;1999.90;999.90;;;11.00;81.60;;;;;;5051250;28;20486;-79
2023/04/19 10:46:58;;;;;;;1999.90;999.90;;;11.30;82.20;;;;;;5067930;28;20037;-78
2023/04/19 10:49:26;;;;;;;1999.90;999.90;;;11.50;81.50;;;;;;5070214;28;20486;-76
2023/04/19 10:51:53;;;;;;;1999.90;999.90;;;11.90;80.60;;;;;;5069236;28;20043;-77
2023/04/19 10:54:30;;;;;;;1999.90;999.90;;;12.30;78.40;;;;;;5037478;28;20024;-77
2023/04/19 10:57:09;;;;;;;1999.90;999.90;;;12.50;79.10;;;;;;5056556;28;20028;-73
2023/04/19 10:59:43;;;;;;;1999.90;999.90;;;12.60;76.80;;;;;;5072457;28;20020;-75
2023/04/19 11:02:20;;;;;;;1999.90;999.90;;;12.40;77.50;;;;;;5052247;28;20027;-74
2023/04/19 11:04:49;;;;;;;1999.90;999.90;;;12.80;77.60;;;;;;5068766;28;20050;-76
2023/04/19 11:07:17;;;;;;;1999.90;999.90;;;13.20;76.00;;;;;;5067876;28;20028;-75
2023/04/19 11:09:47;;;;;;;1999.90;999.90;;;13.10;76.70;;;;;;5067982;28;20030;-79
2023/04/19 11:12:14;;;;;;;1999.90;999.90;;;13.10;74.60;;;;;;5067767;28;20135;-78
2023/04/19 11:14:56;;;;;;;1999.90;999.90;;;12.70;75.50;;;;;;5072424;28;20039;-77
2023/04/19 11:17:29;;;;;;;1999.90;999.90;;;12.90;75.80;;;;;;5074727;28;20035;-77
2023/04/19 11:20:02;;;;;;;1999.90;999.90;;;13.30;75.90;;;;;;5071153;28;20032;-78
2023/04/19 11:22:46;;;;;;;1999.90;999.90;;;13.50;75.10;;;;;;5046839;28;20040;-77
2023/04/19 11:25:12;;;;;;;1999.90;999.90;;;13.20;71.40;;;;;;5065600;28;20075;-76
2023/04/19 11:27:38;;;;;;;1999.90;999.90;;;13.70;74.10;;;;;;5072570;28;20453;-77
2023/04/19 11:30:20;;;;;;;1999.90;999.90;;;14.10;71.10;;;;;;5052406;28;20024;-77
2023/04/19 11:32:54;;;;;;;1999.90;999.90;;;14.60;69.00;;;;;;5050206;28;20033;-77
2023/04/19 11:35:27;;;;;;;1999.90;999.90;;;15.70;68.00;;;;;;5050712;28;20029;-77
2023/04/19 11:37:55;;;;;;;1999.90;999.90;;;16.60;64.80;;;;;;5069908;28;20029;-77
2023/04/19 11:40:22;;;;;;;1999.90;999.90;;;18.40;61.60;;;;;;5055476;28;20040;-76
2023/04/19 11:42:54;;;;;;;1999.90;999.90;;;18.60;56.70;;;;;;5062825;28;20040;-76
2023/04/19 11:45:33;;;;;;;1999.90;999.90;;;17.60;62.80;;;;;;5061662;28;20143;-75
2023/04/19 11:47:59;;;;;;;1999.90;999.90;;;17.10;64.00;;;;;;5061769;28;20058;-75
2023/04/19 11:50:42;;;;;;;1999.90;999.90;;;17.30;63.00;;;;;;5073176;28;20040;-76
2023/04/19 11:53:15;;;;;;;1999.90;999.90;;;16.60;62.80;;;;;;5063787;28;20024;-76
2023/04/19 11:55:45;;;;;;;1999.90;999.90;;;15.80;62.60;;;;;;5066724;28;20577;-76
2023/04/19 11:58:34;;;;;;;1999.90;999.90;;;16.60;64.40;;;;;;5051585;28;20032;-77
2023/04/19 12:01:06;;;;;;;1999.90;999.90;;;16.40;62.20;;;;;;5065234;28;20040;-78
2023/04/19 12:03:33;;;;;;;1999.90;999.90;;;16.90;61.30;;;;;;5049156;28;20040;-78
2023/04/19 12:06:02;;;;;;;1999.90;999.90;;;16.60;62.40;;;;;;5067479;28;20064;-77